Time;durP1;ratioP1;P1;durP2;ratioP2;P2;SDS_P1;SDS_P2;PMS_P1;PMS_P2;Temp;Humidity;BMP_temperature;BMP_pressure;BME280_temperature;BME280_humidity;BME280_pressure;Samples;Min_cycle;Max_cycle;Signal;HPM_P1;HPM_P2
2022/11/25 00:01:10;;;;;;;32.47;11.75;;;2.40;99.90;;;;;;6187923;23;20025;-86
2022/11/25 00:03:58;;;;;;;36.90;12.45;;;2.50;99.90;;;;;;6186012;23;20079;-87
2022/11/25 00:06:46;;;;;;;27.88;11.50;;;2.60;99.90;;;;;;6187189;23;20021;-87
2022/11/25 00:09:33;;;;;;;40.00;13.88;;;2.60;99.90;;;;;;6186955;23;20036;-85
2022/11/25 00:12:22;;;;;;;34.70;13.75;;;2.50;99.90;;;;;;6186366;23;20032;-86
2022/11/25 00:15:09;;;;;;;35.28;12.95;;;2.40;99.90;;;;;;6186523;23;20036;-86
2022/11/25 00:17:56;;;;;;;46.45;14.63;;;2.40;99.90;;;;;;6185597;23;20397;-86
2022/11/25 00:20:43;;;;;;;39.60;15.30;;;2.30;99.90;;;;;;6166016;23;20029;-85
2022/11/25 00:23:31;;;;;;;38.30;15.68;;;2.30;99.90;;;;;;6185595;23;20025;-86
2022/11/25 00:26:23;;;;;;;42.75;14.00;;;2.30;99.90;;;;;;6185844;23;20021;-85
2022/11/25 00:29:12;;;;;;;29.55;14.05;;;2.30;99.90;;;;;;6165330;23;20091;-86
2022/11/25 00:32:02;;;;;;;28.60;12.40;;;2.40;99.90;;;;;;6184108;23;20039;-86
2022/11/25 00:34:49;;;;;;;33.28;12.82;;;2.30;99.90;;;;;;6186987;23;20057;-87
2022/11/25 00:37:36;;;;;;;33.15;13.32;;;2.40;99.90;;;;;;6165752;23;20029;-85
2022/11/25 00:40:24;;;;;;;33.35;15.20;;;2.50;99.90;;;;;;6187613;23;20302;-85
2022/11/25 00:46:17;;;;;;;33.97;12.70;;;2.50;99.90;;;;;;6168603;23;20100;-86
2022/11/25 00:49:06;;;;;;;28.05;12.10;;;2.60;99.90;;;;;;6166132;23;20025;-88
2022/11/25 00:51:54;;;;;;;29.73;13.82;;;2.60;99.90;;;;;;6189941;23;20026;-87
2022/11/25 00:54:43;;;;;;;31.75;13.73;;;2.60;99.90;;;;;;6170544;23;20025;-87
2022/11/25 00:57:30;;;;;;;32.47;13.18;;;2.70;99.90;;;;;;6192956;23;20025;-87
2022/11/25 01:00:20;;;;;;;37.72;13.63;;;2.60;99.90;;;;;;6171376;23;20118;-86
2022/11/25 01:03:10;;;;;;;38.65;13.20;;;2.70;99.90;;;;;;6167740;23;20029;-86
2022/11/25 01:06:01;;;;;;;27.08;12.75;;;2.60;99.90;;;;;;6186914;23;20029;-86
2022/11/25 01:08:48;;;;;;;36.30;12.20;;;2.70;99.90;;;;;;6187796;23;20037;-87
2022/11/25 01:11:35;;;;;;;27.35;12.55;;;2.70;99.90;;;;;;6191215;23;20052;-86
2022/11/25 01:14:23;;;;;;;30.52;12.73;;;2.70;99.90;;;;;;6188558;23;20352;-86
2022/11/25 01:17:10;;;;;;;25.58;11.68;;;2.70;99.90;;;;;;6203744;23;20029;-86
2022/11/25 01:19:57;;;;;;;24.85;11.45;;;2.60;99.90;;;;;;6196430;23;20090;-86
2022/11/25 01:22:44;;;;;;;27.90;12.00;;;2.80;99.90;;;;;;6172316;23;20063;-86
2022/11/25 01:25:35;;;;;;;28.10;11.93;;;2.80;99.90;;;;;;6175115;23;20080;-86
2022/11/25 01:28:22;;;;;;;29.42;10.77;;;2.70;99.90;;;;;;6197381;23;20035;-86
2022/11/25 01:31:18;;;;;;;33.63;12.45;;;2.70;99.90;;;;;;6173950;23;20083;-86
2022/11/25 01:34:15;;;;;;;31.58;12.38;;;2.60;99.90;;;;;;6190994;23;20031;-86
2022/11/25 01:37:02;;;;;;;26.27;11.65;;;2.50;99.90;;;;;;6173271;23;20168;-87
2022/11/25 01:39:49;;;;;;;28.67;11.27;;;2.40;99.90;;;;;;6173096;23;20021;-87
2022/11/25 01:42:43;;;;;;;35.45;12.55;;;2.40;99.90;;;;;;6187683;23;20021;-86
2022/11/25 01:45:35;;;;;;;39.88;14.52;;;2.30;99.90;;;;;;6189085;23;20025;-86
2022/11/25 01:48:52;;;;;;;34.50;13.73;;;2.10;99.90;;;;;;6186985;23;20025;-87
2022/11/25 01:51:47;;;;;;;32.95;12.75;;;2.10;99.90;;;;;;6170564;23;20025;-87
2022/11/25 01:54:40;;;;;;;30.60;13.68;;;2.00;99.90;;;;;;6189772;23;20037;-86
2022/11/25 01:57:51;;;;;;;35.97;13.93;;;2.00;99.90;;;;;;6167926;23;20021;-86
2022/11/25 02:00:39;;;;;;;26.83;13.30;;;1.90;99.90;;;;;;6188923;23;20056;-86
2022/11/25 02:03:39;;;;;;;24.08;13.05;;;1.90;99.90;;;;;;6190713;23;20025;-84
2022/11/25 02:06:41;;;;;;;32.15;12.80;;;1.80;99.90;;;;;;6187393;23;20049;-85
2022/11/25 02:09:33;;;;;;;28.60;13.20;;;1.80;99.90;;;;;;6188647;23;20099;-85
2022/11/25 02:12:22;;;;;;;31.77;13.73;;;1.70;99.90;;;;;;6187138;23;20089;-85
2022/11/25 02:15:11;;;;;;;40.70;14.02;;;1.80;99.90;;;;;;6165581;23;20025;-86
2022/11/25 02:17:58;;;;;;;30.02;12.32;;;1.80;99.90;;;;;;6188620;23;20107;-86
2022/11/25 02:20:46;;;;;;;44.95;15.15;;;1.90;99.90;;;;;;6184689;23;20325;-86
2022/11/25 02:23:33;;;;;;;31.58;14.02;;;1.90;99.90;;;;;;6166637;23;20036;-87
2022/11/25 02:26:20;;;;;;;35.88;16.00;;;1.90;99.90;;;;;;6165877;23;20028;-85
2022/11/25 02:29:08;;;;;;;40.28;14.93;;;2.00;99.90;;;;;;6187860;23;20033;-85
2022/11/25 02:31:58;;;;;;;34.45;14.35;;;2.00;99.90;;;;;;6166150;23;20067;-85
2022/11/25 02:34:47;;;;;;;40.13;15.18;;;2.00;99.90;;;;;;6186419;23;20029;-85
2022/11/25 02:37:34;;;;;;;37.50;15.35;;;2.00;99.90;;;;;;6187431;23;20029;-86
2022/11/25 02:40:22;;;;;;;43.67;17.58;;;1.90;99.90;;;;;;6187533;23;20111;-88
2022/11/25 02:43:09;;;;;;;41.38;17.70;;;2.00;99.90;;;;;;6187412;23;20360;-88
2022/11/25 02:46:06;;;;;;;47.10;17.70;;;2.00;99.90;;;;;;6186894;23;20025;-87
2022/11/25 02:48:56;;;;;;;40.22;16.20;;;2.10;99.90;;;;;;6187818;23;20021;-87
2022/11/25 02:51:57;;;;;;;42.60;17.33;;;2.20;99.90;;;;;;6188608;23;20033;-87
2022/11/25 02:54:44;;;;;;;37.83;16.70;;;2.10;99.90;;;;;;6187431;23;20080;-87
2022/11/25 02:57:32;;;;;;;49.88;17.90;;;2.00;99.90;;;;;;6184998;23;20614;-87
2022/11/25 03:00:19;;;;;;;44.92;18.27;;;2.00;99.90;;;;;;6185798;23;20079;-87
2022/11/25 03:03:09;;;;;;;42.72;18.50;;;1.90;99.90;;;;;;6186072;23;20087;-86
2022/11/25 03:05:58;;;;;;;39.35;17.67;;;1.90;99.90;;;;;;6187519;23;20111;-86
2022/11/25 03:08:45;;;;;;;44.00;19.45;;;1.90;99.90;;;;;;6165912;23;20123;-87
2022/11/25 03:14:38;;;;;;;51.28;19.58;;;2.20;99.90;;;;;;6187856;23;20029;-86
2022/11/25 03:17:25;;;;;;;46.60;18.65;;;2.20;99.90;;;;;;6186578;23;20028;-86
2022/11/25 03:20:14;;;;;;;45.53;18.90;;;2.20;99.90;;;;;;6190562;23;20441;-89
2022/11/25 03:23:01;;;;;;;57.08;23.02;;;2.20;99.90;;;;;;6192199;23;20047;-87
2022/11/25 03:25:48;;;;;;;54.33;21.10;;;2.20;99.90;;;;;;6149931;23;20027;-86
2022/11/25 03:28:36;;;;;;;41.67;19.73;;;2.20;99.90;;;;;;6190458;23;20025;-87
2022/11/25 03:31:25;;;;;;;41.60;19.23;;;2.20;99.90;;;;;;6169035;23;20024;-87
2022/11/25 03:34:13;;;;;;;47.17;18.75;;;2.20;99.90;;;;;;6171892;23;20096;-86
2022/11/25 03:37:00;;;;;;;51.58;19.40;;;2.10;99.90;;;;;;6188153;23;20040;-86
2022/11/25 03:39:48;;;;;;;49.22;19.15;;;2.10;99.90;;;;;;6187737;23;20025;-87
2022/11/25 03:42:36;;;;;;;47.80;19.02;;;2.00;99.90;;;;;;6188954;23;20083;-83
2022/11/25 03:45:25;;;;;;;43.22;16.73;;;1.90;99.90;;;;;;6183961;23;20032;-83
2022/11/25 03:48:12;;;;;;;45.03;17.17;;;1.80;99.90;;;;;;6186479;23;20024;-81
2022/11/25 03:51:00;;;;;;;42.67;16.35;;;1.70;99.90;;;;;;6184650;23;20036;-81
2022/11/25 03:53:47;;;;;;;56.63;18.58;;;1.60;99.90;;;;;;6182248;23;20029;-81
2022/11/25 03:56:34;;;;;;;50.30;17.63;;;1.60;99.90;;;;;;6165461;23;20032;-81
2022/11/25 03:59:22;;;;;;;42.10;18.20;;;1.60;99.90;;;;;;6183859;23;20033;-82
2022/11/25 04:02:09;;;;;;;43.08;17.20;;;1.60;99.90;;;;;;6183687;23;20025;-82
2022/11/25 04:04:56;;;;;;;42.10;18.73;;;1.60;99.90;;;;;;6163635;23;20021;-82
2022/11/25 04:07:44;;;;;;;50.67;20.85;;;1.60;99.90;;;;;;6185283;23;20033;-81
2022/11/25 04:10:31;;;;;;;46.70;19.55;;;1.60;99.90;;;;;;6185092;23;20033;-81
2022/11/25 04:13:18;;;;;;;55.55;21.45;;;1.70;99.90;;;;;;6184780;23;20096;-82
2022/11/25 04:16:07;;;;;;;42.83;19.00;;;1.60;99.90;;;;;;6184479;23;20100;-81
2022/11/25 04:18:55;;;;;;;57.70;20.98;;;1.60;99.90;;;;;;6185139;23;20377;-82
2022/11/25 04:21:42;;;;;;;51.15;21.35;;;1.60;99.90;;;;;;6185069;23;20354;-82
2022/11/25 04:24:37;;;;;;;53.30;22.02;;;1.50;99.90;;;;;;6163923;23;20160;-80
2022/11/25 04:27:25;;;;;;;52.22;21.25;;;1.50;99.90;;;;;;6185862;23;20106;-82
2022/11/25 04:30:14;;;;;;;60.13;23.13;;;1.50;99.90;;;;;;6186862;23;20024;-80
2022/11/25 04:33:01;;;;;;;50.55;21.63;;;1.60;99.90;;;;;;6188414;23;20083;-82
2022/11/25 04:35:49;;;;;;;55.85;23.98;;;1.70;99.90;;;;;;6185441;23;20040;-81
2022/11/25 04:38:36;;;;;;;53.17;24.77;;;1.70;99.90;;;;;;6188183;23;20111;-82
2022/11/25 04:41:23;;;;;;;55.10;23.35;;;1.60;99.90;;;;;;6186137;23;20155;-81
2022/11/25 04:44:10;;;;;;;54.47;23.50;;;1.60;99.90;;;;;;6188941;23;20032;-84
2022/11/25 04:47:00;;;;;;;51.92;22.25;;;1.60;99.90;;;;;;6186760;23;20076;-83
2022/11/25 04:49:47;;;;;;;51.58;22.98;;;1.40;99.90;;;;;;6188737;23;20056;-82
2022/11/25 04:52:34;;;;;;;64.75;23.58;;;1.30;99.90;;;;;;6187734;23;20443;-82
2022/11/25 04:55:23;;;;;;;47.22;21.88;;;1.20;99.90;;;;;;6188061;23;20112;-82
2022/11/25 04:58:11;;;;;;;54.50;21.85;;;1.20;99.90;;;;;;6188994;23;20031;-81
2022/11/25 05:00:58;;;;;;;44.88;20.05;;;1.00;99.90;;;;;;6189429;23;20429;-81
2022/11/25 05:03:48;;;;;;;58.63;24.38;;;0.90;99.90;;;;;;6168829;23;20101;-80
2022/11/25 05:06:43;;;;;;;51.08;22.15;;;0.80;99.90;;;;;;6200841;23;20025;-80
2022/11/25 05:09:30;;;;;;;50.60;19.05;;;0.70;99.90;;;;;;6197899;23;20045;-81
2022/11/25 05:12:21;;;;;;;46.65;18.13;;;0.60;99.90;;;;;;6197446;23;20056;-82
2022/11/25 05:15:08;;;;;;;46.67;19.10;;;0.80;99.90;;;;;;6196615;23;20021;-82
2022/11/25 05:17:58;;;;;;;51.00;21.33;;;0.90;99.90;;;;;;6189425;23;20021;-82
2022/11/25 05:20:47;;;;;;;60.20;19.45;;;0.90;99.90;;;;;;6187061;23;20029;-82
2022/11/25 05:23:36;;;;;;;41.35;18.95;;;1.00;99.90;;;;;;6166916;23;20035;-82
2022/11/25 05:26:23;;;;;;;45.80;19.10;;;1.00;99.90;;;;;;6185471;23;20453;-80
2022/11/25 05:29:10;;;;;;;48.90;20.40;;;0.90;99.90;;;;;;6165689;23;20084;-83
2022/11/25 05:31:57;;;;;;;49.75;19.92;;;0.80;99.90;;;;;;6187760;23;20352;-83
2022/11/25 05:34:47;;;;;;;49.75;20.15;;;0.60;99.90;;;;;;6187889;23;20033;-83
2022/11/25 05:37:34;;;;;;;36.78;18.35;;;0.50;99.90;;;;;;6187244;23;20116;-83
2022/11/25 05:40:21;;;;;;;47.25;19.50;;;0.40;99.90;;;;;;6188911;23;20104;-83
2022/11/25 05:43:08;;;;;;;41.38;19.92;;;0.50;99.90;;;;;;6192551;23;20413;-82
2022/11/25 05:45:55;;;;;;;54.72;20.77;;;0.50;99.90;;;;;;6188822;23;20021;-81
2022/11/25 05:48:42;;;;;;;49.00;20.77;;;0.40;99.90;;;;;;6188002;23;20031;-82
2022/11/25 05:51:30;;;;;;;52.67;21.80;;;0.40;99.90;;;;;;6186342;23;20109;-84
2022/11/25 05:54:17;;;;;;;39.03;19.77;;;0.50;99.90;;;;;;6186923;23;20124;-85
2022/11/25 05:57:04;;;;;;;42.40;17.88;;;0.50;99.90;;;;;;6186342;23;20032;-85
2022/11/25 05:59:52;;;;;;;43.80;19.95;;;0.60;99.90;;;;;;6166365;23;20052;-86
2022/11/25 06:02:39;;;;;;;37.90;19.65;;;0.90;99.90;;;;;;6189221;23;20021;-83
2022/11/25 06:05:27;;;;;;;42.92;19.77;;;1.10;99.90;;;;;;6186738;23;20028;-81
2022/11/25 06:08:14;;;;;;;42.75;19.02;;;1.10;99.90;;;;;;6164853;23;20029;-81
2022/11/25 06:11:10;;;;;;;44.47;18.35;;;1.30;99.90;;;;;;6186309;23;20103;-82
2022/11/25 06:13:58;;;;;;;50.78;19.63;;;1.40;99.90;;;;;;6184725;23;20029;-83
2022/11/25 06:16:45;;;;;;;40.38;19.42;;;1.40;99.90;;;;;;6165122;23;20338;-81
2022/11/25 06:19:32;;;;;;;38.95;17.65;;;1.50;99.90;;;;;;6183685;23;20060;-83
2022/11/25 06:22:22;;;;;;;40.38;17.85;;;1.80;99.90;;;;;;6186903;23;20086;-82
2022/11/25 06:25:09;;;;;;;41.95;17.98;;;1.90;99.90;;;;;;6164653;23;20084;-82
2022/11/25 06:27:58;;;;;;;41.05;18.27;;;2.00;99.90;;;;;;6185727;23;20048;-82
2022/11/25 06:31:08;;;;;;;40.17;16.70;;;1.90;99.90;;;;;;6187525;23;20024;-82
2022/11/25 06:33:56;;;;;;;49.58;18.52;;;1.90;99.90;;;;;;6186347;23;20029;-83
2022/11/25 06:36:44;;;;;;;41.67;18.00;;;1.90;99.90;;;;;;6191286;23;20025;-82
2022/11/25 06:39:33;;;;;;;43.58;18.83;;;1.90;99.90;;;;;;6185473;23;20029;-83
2022/11/25 06:42:21;;;;;;;37.97;19.40;;;1.90;99.90;;;;;;6183324;23;20032;-81
2022/11/25 06:45:09;;;;;;;39.30;18.48;;;1.90;99.90;;;;;;6185816;23;20029;-83
2022/11/25 06:47:56;;;;;;;42.35;18.58;;;1.90;99.90;;;;;;6182017;23;20105;-83
2022/11/25 06:50:43;;;;;;;44.95;19.40;;;2.00;99.90;;;;;;6186510;23;20060;-81
2022/11/25 06:53:33;;;;;;;35.65;16.95;;;2.00;99.90;;;;;;6183344;23;20044;-82
2022/11/25 06:56:24;;;;;;;32.10;16.58;;;2.20;99.90;;;;;;6185263;23;20028;-86
2022/11/25 06:59:13;;;;;;;34.90;17.13;;;2.40;99.90;;;;;;6184461;23;20025;-83
2022/11/25 07:02:03;;;;;;;31.63;16.27;;;2.50;99.90;;;;;;6164800;23;20021;-82
2022/11/25 07:04:51;;;;;;;35.13;18.58;;;2.70;99.90;;;;;;6181049;23;20025;-85
2022/11/25 07:07:38;;;;;;;35.42;16.85;;;2.70;99.90;;;;;;6187825;23;20346;-84
2022/11/25 07:10:25;;;;;;;35.40;17.20;;;2.70;99.90;;;;;;6184146;23;20103;-84
2022/11/25 07:13:12;;;;;;;36.10;16.60;;;2.70;99.90;;;;;;6186479;23;20021;-83
2022/11/25 07:16:04;;;;;;;31.23;14.00;;;2.70;99.90;;;;;;6187232;23;20508;-82
2022/11/25 07:18:51;;;;;;;35.95;13.20;;;2.90;99.90;;;;;;6187604;23;20021;-82
2022/11/25 07:21:39;;;;;;;28.00;13.30;;;3.10;99.90;;;;;;6164541;23;20099;-84
2022/11/25 07:24:28;;;;;;;25.80;13.88;;;3.20;99.90;;;;;;6165328;23;20044;-84
2022/11/25 07:27:15;;;;;;;29.90;14.07;;;3.30;99.90;;;;;;6163778;23;20021;-83
2022/11/25 07:30:03;;;;;;;26.77;13.70;;;3.30;99.90;;;;;;6187021;23;20309;-85
2022/11/25 07:33:12;;;;;;;35.92;17.45;;;3.40;99.90;;;;;;6187898;23;20032;-87
2022/11/25 07:36:05;;;;;;;48.10;22.70;;;3.10;99.90;;;;;;6166231;23;20029;-85
2022/11/25 07:38:56;;;;;;;31.77;13.90;;;2.90;99.90;;;;;;6165901;23;20088;-84
2022/11/25 07:41:44;;;;;;;42.55;20.55;;;2.80;99.90;;;;;;6163289;23;20024;-85
2022/11/25 07:44:31;;;;;;;35.60;17.60;;;3.00;99.90;;;;;;6183986;23;20097;-83
2022/11/25 07:47:19;;;;;;;29.50;14.43;;;3.20;99.90;;;;;;6184228;23;20435;-82
2022/11/25 07:50:09;;;;;;;18.63;11.32;;;3.30;99.90;;;;;;6185351;23;20025;-83
2022/11/25 07:52:56;;;;;;;20.45;9.85;;;3.60;99.90;;;;;;6185403;23;20040;-83
2022/11/25 07:55:43;;;;;;;14.93;8.55;;;3.80;99.90;;;;;;6183851;23;20040;-84
2022/11/25 07:58:33;;;;;;;17.02;8.65;;;4.00;99.90;;;;;;6188015;23;20317;-87
2022/11/25 08:01:25;;;;;;;15.85;7.05;;;4.10;99.90;;;;;;6164230;23;20025;-87
2022/11/25 08:04:14;;;;;;;12.52;6.60;;;4.20;99.90;;;;;;6187229;23;20465;-84
2022/11/25 08:07:06;;;;;;;17.60;6.10;;;4.30;99.90;;;;;;6186470;23;20042;-86
2022/11/25 08:09:53;;;;;;;10.63;6.00;;;4.30;99.90;;;;;;6185607;23;20120;-84
2022/11/25 08:12:41;;;;;;;13.77;5.70;;;4.30;99.90;;;;;;6185960;23;20290;-85
2022/11/25 08:15:31;;;;;;;11.23;4.63;;;4.30;99.90;;;;;;6187587;23;20029;-85
2022/11/25 08:18:19;;;;;;;12.75;5.40;;;4.30;99.90;;;;;;6187042;23;20035;-86
2022/11/25 08:21:10;;;;;;;17.15;6.15;;;4.40;99.90;;;;;;6172471;23;20028;-82
2022/11/25 08:23:58;;;;;;;11.18;5.78;;;4.40;99.90;;;;;;6201635;23;20068;-83
2022/11/25 08:26:57;;;;;;;15.63;6.22;;;4.50;99.90;;;;;;6197481;23;20025;-85
2022/11/25 08:29:44;;;;;;;13.77;6.13;;;4.70;99.90;;;;;;6177843;23;20083;-85
2022/11/25 08:32:38;;;;;;;13.05;5.07;;;4.80;99.90;;;;;;6205833;23;20029;-85
2022/11/25 08:35:26;;;;;;;15.90;6.35;;;4.90;99.90;;;;;;6201607;23;20028;-85
2022/11/25 08:38:20;;;;;;;13.07;6.03;;;4.90;99.90;;;;;;6208726;23;20021;-83
2022/11/25 08:41:25;;;;;;;8.95;5.03;;;5.00;99.90;;;;;;6173804;23;20337;-84
2022/11/25 08:44:19;;;;;;;12.60;6.10;;;5.00;99.90;;;;;;6200091;23;20044;-84
2022/11/25 08:47:16;;;;;;;16.33;6.68;;;5.10;99.90;;;;;;6200078;23;20108;-85
2022/11/25 08:50:22;;;;;;;14.60;6.70;;;5.10;99.90;;;;;;6176136;23;20036;-83
2022/11/25 08:53:10;;;;;;;16.13;6.50;;;5.30;99.90;;;;;;6203126;23;20052;-85
2022/11/25 08:55:57;;;;;;;15.40;7.00;;;5.30;99.90;;;;;;6203249;23;20084;-83
2022/11/25 08:58:48;;;;;;;14.07;6.28;;;5.40;99.90;;;;;;6169262;23;20305;-85
2022/11/25 09:01:35;;;;;;;13.50;6.32;;;5.60;99.90;;;;;;6163204;23;20017;-83
2022/11/25 09:04:29;;;;;;;15.98;7.30;;;5.70;99.90;;;;;;6167248;23;20072;-81
2022/11/25 09:07:18;;;;;;;12.52;7.15;;;5.70;99.90;;;;;;6186845;23;20025;-84
2022/11/25 09:10:10;;;;;;;10.90;6.97;;;5.80;99.90;;;;;;6190688;23;20020;-84
2022/11/25 09:13:01;;;;;;;15.95;7.10;;;5.80;99.90;;;;;;6193619;23;20425;-83
2022/11/25 09:15:59;;;;;;;16.98;7.70;;;5.80;99.90;;;;;;6177779;23;20037;-83
2022/11/25 09:18:49;;;;;;;18.27;7.95;;;5.90;99.90;;;;;;6186327;23;20035;-82
2022/11/25 09:21:44;;;;;;;16.05;7.50;;;6.00;99.90;;;;;;6171960;23;20251;-81
2022/11/25 09:24:34;;;;;;;14.05;6.85;;;6.10;41.40;;;;;;6204575;23;20032;-85
2022/11/25 09:27:21;;;;;;;17.48;7.10;;;6.10;99.90;;;;;;6198106;23;20029;-83
2022/11/25 09:30:11;;;;;;;14.57;6.75;;;6.10;99.90;;;;;;6188162;23;20040;-83
2022/11/25 09:32:59;;;;;;;13.23;6.45;;;6.20;99.90;;;;;;6165018;23;20025;-83
2022/11/25 09:35:54;;;;;;;11.55;6.88;;;6.40;99.90;;;;;;6186547;23;20088;-83
2022/11/25 09:38:46;;;;;;;13.50;6.60;;;6.40;99.90;;;;;;6187042;23;20029;-82
2022/11/25 09:48:23;;;;;;;11.88;6.95;;;6.50;99.90;;;;;;6185777;23;20374;-83
2022/11/25 09:51:39;;;;;;;13.30;6.35;;;6.50;99.90;;;;;;6187479;23;20407;-82
2022/11/25 09:54:36;;;;;;;15.98;6.60;;;6.70;1.00;;;;;;6189120;23;20652;-84
2022/11/25 09:57:28;;;;;;;14.00;5.97;;;6.80;1.00;;;;;;6164187;23;20025;-79
2022/11/25 10:00:20;;;;;;;10.50;6.07;;;6.90;99.90;;;;;;6187528;23;20025;-80
2022/11/25 10:03:22;;;;;;;14.60;6.65;;;7.00;99.90;;;;;;6190412;23;20035;-79
2022/11/25 10:06:19;;;;;;;;;;;7.20;99.90;;;;;;6187180;23;20025;-81
2022/11/25 10:09:20;;;;;;;11.43;4.93;;;7.60;99.90;;;;;;6186367;23;19999;-83
2022/11/25 10:12:31;;;;;;;10.60;4.90;;;8.00;1.00;;;;;;6185199;23;20087;-82
2022/11/25 10:15:37;;;;;;;12.43;4.88;;;9.30;1.00;;;;;;6183969;23;20073;-84
2022/11/25 10:18:44;;;;;;;11.30;4.80;;;9.90;99.90;;;;;;6195769;23;20040;-86
2022/11/25 10:21:35;;;;;;;9.68;4.47;;;9.70;59.00;;;;;;6186107;23;20040;-84
2022/11/25 10:24:25;;;;;;;10.73;4.85;;;10.10;7.30;;;;;;6164548;23;20032;-86
2022/11/25 10:27:24;;;;;;;11.57;4.38;;;10.10;1.00;;;;;;6165246;23;20029;-85
2022/11/25 10:30:25;;;;;;;8.75;4.35;;;10.10;1.00;;;;;;6185386;23;20027;-86
2022/11/25 10:33:22;;;;;;;9.13;3.72;;;10.30;1.00;;;;;;6189436;23;20029;-86
2022/11/25 10:36:29;;;;;;;9.73;4.20;;;10.30;1.00;;;;;;6188948;23;20039;-85
2022/11/25 10:39:50;;;;;;;8.07;3.83;;;10.10;1.00;;;;;;6169125;23;20032;-86
2022/11/25 10:47:08;;;;;;;13.48;4.10;;;8.60;1.00;;;;;;6184170;23;20025;-89
2022/11/25 10:50:48;;;;;;;;;;;;;;;;;;;;;
2022/11/25 10:54:08;;;;;;;8.07;3.95;;;8.40;41.20;;;;;;6182713;23;20479;-85
2022/11/25 10:57:01;;;;;;;9.80;3.53;;;8.40;99.90;;;;;;6164461;23;20047;-86
2022/11/25 11:00:08;;;;;;;9.77;3.45;;;8.40;99.90;;;;;;6183260;23;20387;-85
2022/11/25 11:03:29;;;;;;;12.02;3.92;;;8.40;99.90;;;;;;6183375;23;20072;-84
2022/11/25 11:06:47;;;;;;;10.27;3.47;;;8.40;99.90;;;;;;6183763;23;20021;-84
2022/11/25 11:09:44;;;;;;;;;;;8.40;99.90;;;;;;6188666;23;20463;-86
2022/11/25 11:12:32;;;;;;;10.00;2.97;;;8.40;99.90;;;;;;6188414;23;19928;-84
2022/11/25 11:15:22;;;;;;;8.70;2.85;;;8.30;99.90;;;;;;6185825;23;20491;-84
2022/11/25 11:19:01;;;;;;;8.38;3.30;;;8.20;99.90;;;;;;6184526;23;20029;-84
2022/11/25 11:21:51;;;;;;;10.48;3.70;;;8.20;99.90;;;;;;6185671;23;20057;-84
2022/11/25 11:25:24;;;;;;;9.77;3.28;;;8.10;99.90;;;;;;6067771;23;20439;-87
2022/11/25 11:29:27;;;;;;;;;;;;;;;;;;;;;
2022/11/25 11:41:18;;;;;;;8.55;3.30;;;7.90;1.00;;;;;;5873312;24;20395;-85
2022/11/25 11:44:43;;;;;;;8.38;4.05;;;8.00;1.00;;;;;;5955736;24;20024;-85
2022/11/25 11:48:07;;;;;;;;;;;8.00;38.30;;;;;;6048394;23;20062;-85
2022/11/25 11:51:30;;;;;;;10.05;3.67;;;8.00;99.90;;;;;;6068175;23;20206;-84
2022/11/25 11:54:34;;;;;;;12.63;3.25;;;8.00;99.90;;;;;;6082022;23;20034;-87
2022/11/25 11:57:29;;;;;;;14.18;3.85;;;8.00;99.90;;;;;;6090823;23;20055;-84
2022/11/25 12:00:32;;;;;;;;;;;;;;;;;;;;;
2022/11/25 12:03:35;;;;;;;8.43;3.28;;;8.10;99.90;;;;;;6077624;23;20027;-84
2022/11/25 12:07:02;;;;;;;5.70;3.15;;;8.30;99.90;;;;;;6071821;23;20027;-84
2022/11/25 12:09:56;;;;;;;9.88;3.67;;;8.30;99.90;;;;;;6066525;23;20039;-81
2022/11/25 12:12:47;;;;;;;11.80;2.90;;;8.50;99.90;;;;;;6067661;23;20042;-86
2022/11/25 12:16:02;;;;;;;7.47;3.00;;;8.60;99.90;;;;;;6066539;23;20296;-81
2022/11/25 12:19:12;;;;;;;12.60;3.28;;;9.20;99.90;;;;;;6069218;23;20030;-83
2022/11/25 12:22:07;;;;;;;5.30;2.70;;;9.50;54.00;;;;;;6065982;23;20034;-83
2022/11/25 12:25:18;;;;;;;6.68;2.42;;;9.60;1.00;;;;;;6070247;23;20031;-83
2022/11/25 12:28:19;;;;;;;8.43;2.85;;;9.60;1.00;;;;;;6066632;23;20031;-86
2022/11/25 12:31:33;;;;;;;;;;;;;;;;;;;;;
2022/11/25 12:34:52;;;;;;;6.57;2.80;;;9.30;99.90;;;;;;6073531;23;20023;-85
2022/11/25 12:38:12;;;;;;;5.20;2.20;;;9.00;1.00;;;;;;6070753;23;20033;-86
2022/11/25 12:41:34;;;;;;;8.82;2.70;;;8.90;1.00;;;;;;6049031;23;20027;-86
2022/11/25 12:44:56;;;;;;;;;;;;;;;;;;;;;
2022/11/25 12:48:04;;;;;;;12.15;2.83;;;8.70;30.40;;;;;;6068075;23;20035;-84
2022/11/25 12:51:12;;;;;;;9.35;3.53;;;8.70;99.90;;;;;;6068431;23;20033;-85
2022/11/25 12:54:12;;;;;;;8.52;2.95;;;8.70;99.90;;;;;;6068021;23;20082;-85
2022/11/25 12:57:37;;;;;;;5.65;2.35;;;8.70;99.90;;;;;;6066006;23;20110;-83
2022/11/25 13:00:56;;;;;;;6.35;2.63;;;8.60;99.90;;;;;;6069554;23;20034;-82
2022/11/25 13:03:55;;;;;;;6.47;3.08;;;8.50;99.90;;;;;;6068173;23;20059;-82
2022/11/25 13:06:59;;;;;;;8.50;3.22;;;8.50;99.90;;;;;;6068294;23;20031;-81
2022/11/25 13:10:09;;;;;;;7.45;3.08;;;8.40;99.90;;;;;;6065955;23;20089;-85
2022/11/25 13:13:20;;;;;;;8.55;3.15;;;8.40;1.00;;;;;;6067497;23;20105;-84
2022/11/25 13:16:11;;;;;;;8.80;3.85;;;8.40;1.00;;;;;;6067266;23;20034;-84
2022/11/25 13:19:00;;;;;;;12.75;4.60;;;8.30;1.00;;;;;;6068168;23;20027;-84
2022/11/25 13:22:05;;;;;;;9.10;3.42;;;8.30;99.90;;;;;;6066272;23;20034;-84
2022/11/25 13:24:59;;;;;;;5.82;3.38;;;8.30;99.90;;;;;;6068474;23;20323;-85
2022/11/25 13:27:57;;;;;;;6.63;2.45;;;8.30;99.90;;;;;;6068544;23;20206;-87
2022/11/25 13:31:21;;;;;;;6.13;3.08;;;8.30;99.90;;;;;;6067525;23;20025;-86
2022/11/25 13:34:18;;;;;;;6.00;2.88;;;8.30;99.90;;;;;;6067682;23;20035;-85
2022/11/25 13:37:38;;;;;;;6.85;2.63;;;8.40;1.00;;;;;;6069078;23;20027;-87
2022/11/25 13:40:29;;;;;;;7.07;2.53;;;8.60;99.90;;;;;;6071355;23;20030;-87
2022/11/25 13:43:23;;;;;;;8.07;2.20;;;9.10;99.90;;;;;;6067027;23;20055;-86
2022/11/25 13:46:42;;;;;;;8.55;2.33;;;9.70;52.00;;;;;;6066995;23;20027;-86
2022/11/25 13:50:35;;;;;;;;;;;;;;;;;;;;;
2022/11/25 13:53:40;;;;;;;7.95;2.53;;;10.10;9.00;;;;;;6069981;23;20019;-85
2022/11/25 13:57:11;;;;;;;9.18;2.17;;;10.00;99.90;;;;;;6074202;23;20035;-84
2022/11/25 14:00:19;;;;;;;7.30;2.35;;;10.70;99.90;;;;;;6078658;23;20023;-86
2022/11/25 14:03:18;;;;;;;7.30;2.45;;;12.60;99.90;;;;;;6018044;23;20097;-85
2022/11/25 14:06:30;;;;;;;7.20;2.58;;;13.70;1.00;;;;;;6068364;23;20026;-85
2022/11/25 14:09:23;;;;;;;8.35;2.22;;;13.10;99.90;;;;;;6067471;23;20422;-86
2022/11/25 14:12:19;;;;;;;;;;;12.10;99.90;;;;;;6069747;23;20038;-84
2022/11/25 14:15:50;;;;;;;6.22;1.90;;;11.00;99.90;;;;;;6065968;23;19993;-85
2022/11/25 14:18:39;;;;;;;7.28;2.25;;;10.10;99.90;;;;;;6067804;23;20093;-85
2022/11/25 14:22:02;;;;;;;8.90;2.20;;;9.70;99.90;;;;;;6065755;23;20486;-84
2022/11/25 14:24:54;;;;;;;9.50;2.15;;;9.20;99.90;;;;;;6065372;23;20027;-85
2022/11/25 14:28:18;;;;;;;14.10;2.70;;;9.00;1.00;;;;;;6065811;23;20074;-86
2022/11/25 14:31:15;;;;;;;14.45;2.60;;;8.80;1.00;;;;;;6067677;23;20033;-85
2022/11/25 14:34:26;;;;;;;9.95;2.33;;;8.60;1.00;;;;;;6065615;23;20023;-85
2022/11/25 14:37:21;;;;;;;13.30;2.88;;;8.40;1.00;;;;;;6067349;23;20031;-84
2022/11/25 14:40:16;;;;;;;12.63;3.40;;;8.30;1.00;;;;;;6064667;23;20027;-85
2022/11/25 14:43:12;;;;;;;11.70;3.30;;;8.20;1.00;;;;;;6066919;23;20450;-86
2022/11/25 14:46:15;;;;;;;22.20;3.38;;;8.10;1.00;;;;;;6050869;23;20096;-85
2022/11/25 14:49:05;;;;;;;16.67;2.70;;;8.00;1.00;;;;;;6069178;23;20027;-86
2022/11/25 14:52:19;;;;;;;10.10;2.75;;;8.00;1.00;;;;;;6064926;23;20034;-85
2022/11/25 14:55:07;;;;;;;13.15;3.40;;;7.90;1.00;;;;;;6065764;23;20109;-83
2022/11/25 14:57:55;;;;;;;15.70;3.42;;;7.70;1.00;;;;;;6068400;23;20027;-84
2022/11/25 15:01:00;;;;;;;16.48;3.38;;;7.60;1.00;;;;;;6068199;23;20106;-83
2022/11/25 15:03:48;;;;;;;14.43;3.72;;;7.40;33.30;;;;;;6066070;23;20050;-82
2022/11/25 15:06:39;;;;;;;15.35;2.95;;;7.30;71.40;;;;;;6065165;23;20038;-84
2022/11/25 15:09:41;;;;;;;25.30;3.05;;;7.20;99.90;;;;;;6067702;23;20031;-84
2022/11/25 15:12:31;;;;;;;10.48;3.30;;;7.10;99.90;;;;;;6068869;23;20035;-83
2022/11/25 15:15:19;;;;;;;15.02;3.08;;;7.10;99.90;;;;;;6067921;23;20031;-83
2022/11/25 15:18:12;;;;;;;15.23;3.65;;;7.00;99.90;;;;;;6067596;23;20121;-85
2022/11/25 15:21:00;;;;;;;19.25;4.65;;;7.00;99.90;;;;;;6070942;23;20407;-83
2022/11/25 15:23:47;;;;;;;15.40;5.47;;;6.90;99.90;;;;;;6070110;23;20439;-85
2022/11/25 15:26:35;;;;;;;19.27;7.00;;;6.90;99.90;;;;;;6070144;23;20032;-87
2022/11/25 15:29:23;;;;;;;18.30;5.72;;;6.80;99.90;;;;;;6067354;23;20438;-83
2022/11/25 15:32:27;;;;;;;16.00;5.22;;;6.80;99.90;;;;;;6064199;23;20026;-84
2022/11/25 15:35:20;;;;;;;19.40;4.88;;;6.60;99.90;;;;;;6065700;23;20026;-86
2022/11/25 15:38:45;;;;;;;13.63;4.40;;;6.30;99.90;;;;;;6066064;23;20038;-84
2022/11/25 15:41:34;;;;;;;17.85;5.20;;;6.10;1.00;;;;;;6067349;23;20037;-84
2022/11/25 15:44:32;;;;;;;18.30;5.20;;;5.90;1.00;;;;;;6115982;23;20028;-84